EUR65 VABB-DAOR
Flight info
| Callsign | EUR65 |
|---|---|
| Flight time | N/A |
| Altitude | 38000 |
| Route | VABB EXOLU NOBAT LADOT RASKI VAXIM DORAB ALSAS TONVO SHJ MUTVI ORSAR EGMID DURSI IMDAT ALNIN OBMOR NANPI DESLU SIDAD BSR DISAR LOVEK PUSTO RAPLU MODIK TAN SULAF ABBAS SOFIA DAM KAD KUKLA DESPO REXAL LCA RUBIK TOBAL TOSKA AMONO VAXOS GISOS PERIM VEREK TELRI LAPSO SIT AMAXI OTREX PLH PIDAS DEMAG ALIXA BINKO EVIRA AGARI GZO ASDAX DOBIX SONAK DIDON TUC DAOR |
| Aircraft | A388/J-DGVW/C |
Departure
| Time | 2026-04-30 18:33 |
|---|---|
| Airport | Chhatrapati Shivaji Maharaj International Airport (VABB) |
Arrival
| Time | N/A |
|---|---|
| Airport | Béchar Boudghene Ben Ali Lotfi Airport (DAOR) |
| Time | Latitude | Longitude | Altitude | Speed | Heading |
|---|---|---|---|---|---|
| 2026-04-30 18:28 | 19.09724 | 72.87836 | 38 ft | 0 kts | 271° |
| 2026-04-30 18:29 | 19.09733 | 72.87883 | 38 ft | 0 kts | 218° |
| 2026-04-30 18:30 | 19.09535 | 72.87850 | 38 ft | 32 kts | 212° |
| 2026-04-30 18:30 | 19.09039 | 72.87825 | 38 ft | 26 kts | 185° |
| 2026-04-30 18:31 | 19.08899 | 72.87772 | 38 ft | 10 kts | 246° |
| 2026-04-30 18:31 | 19.08881 | 72.87599 | 38 ft | 0 kts | 270° |
| 2026-04-30 18:32 | 19.08881 | 72.87598 | 38 ft | 0 kts | 270° |
| 2026-04-30 18:32 | 19.08879 | 72.87450 | 38 ft | 51 kts | 268° |
| 2026-04-30 18:32 | 19.08843 | 72.85817 | 49 ft | 166 kts | 273° |
| 2026-04-30 18:33 | 19.08854 | 72.84503 | 616 ft | 186 kts | 270° |
| 2026-04-30 18:33 | 19.08914 | 72.83117 | 1710 ft | 194 kts | 272° |
| 2026-04-30 18:33 | 19.09310 | 72.81708 | 2676 ft | 209 kts | 295° |
| 2026-04-30 18:34 | 19.10357 | 72.80608 | 3769 ft | 218 kts | 319° |
| 2026-04-30 18:34 | 19.13147 | 72.78904 | 5864 ft | 247 kts | 329° |
| 2026-04-30 18:34 | 19.14160 | 72.78299 | 6546 ft | 257 kts | 328° |
| 2026-04-30 18:35 | 19.16166 | 72.76897 | 8293 ft | 258 kts | 323° |
| 2026-04-30 18:35 | 19.17576 | 72.75757 | 9674 ft | 259 kts | 321° |
| 2026-04-30 18:35 | 19.19045 | 72.74457 | 10202 ft | 290 kts | 318° |
| 2026-04-30 18:36 | 19.22250 | 72.71259 | 11248 ft | 329 kts | 315° |
| 2026-04-30 18:36 | 19.23833 | 72.69567 | 11734 ft | 318 kts | 314° |
| 2026-04-30 18:36 | 19.26380 | 72.66762 | 12570 ft | 317 kts | 313° |
| 2026-04-30 18:37 | 19.27904 | 72.65054 | 13075 ft | 321 kts | 313° |
| 2026-04-30 18:37 | 19.29433 | 72.63326 | 13576 ft | 322 kts | 313° |
| 2026-04-30 18:37 | 19.30945 | 72.61610 | 14071 ft | 324 kts | 313° |
| 2026-04-30 18:37 | 19.32484 | 72.59857 | 14573 ft | 326 kts | 313° |
| 2026-04-30 18:38 | 19.34027 | 72.58095 | 15074 ft | 327 kts | 313° |
| 2026-04-30 18:38 | 19.35578 | 72.56321 | 15576 ft | 329 kts | 313° |
| 2026-04-30 18:38 | 19.37136 | 72.54536 | 16078 ft | 331 kts | 313° |
| 2026-04-30 18:38 | 19.38699 | 72.52744 | 16579 ft | 332 kts | 314° |
| 2026-04-30 18:39 | 19.40269 | 72.50942 | 17081 ft | 334 kts | 314° |
| 2026-04-30 18:39 | 19.41846 | 72.49131 | 17582 ft | 335 kts | 314° |
| 2026-04-30 18:39 | 19.43428 | 72.47313 | 18084 ft | 336 kts | 314° |
| 2026-04-30 18:39 | 19.45019 | 72.45485 | 18584 ft | 338 kts | 314° |
| 2026-04-30 18:40 | 19.46617 | 72.43647 | 19085 ft | 340 kts | 314° |
| 2026-04-30 18:40 | 19.48225 | 72.41798 | 19586 ft | 342 kts | 314° |
| 2026-04-30 18:40 | 19.49845 | 72.39934 | 20087 ft | 345 kts | 314° |
| 2026-04-30 18:40 | 19.51476 | 72.38058 | 20588 ft | 348 kts | 314° |
| 2026-04-30 18:41 | 19.53120 | 72.36165 | 21089 ft | 350 kts | 314° |
| 2026-04-30 18:41 | 19.54775 | 72.34258 | 21590 ft | 353 kts | 314° |
| 2026-04-30 18:41 | 19.56445 | 72.32334 | 22092 ft | 356 kts | 314° |
| 2026-04-30 18:41 | 19.58127 | 72.30395 | 22595 ft | 359 kts | 314° |
| 2026-04-30 18:42 | 19.59823 | 72.28439 | 23096 ft | 362 kts | 314° |
| 2026-04-30 18:42 | 19.63255 | 72.24479 | 24100 ft | 368 kts | 315° |
| 2026-04-30 18:42 | 19.64993 | 72.22474 | 24601 ft | 371 kts | 314° |
| 2026-04-30 18:45 | 19.83224 | 72.01393 | 29618 ft | 406 kts | 313° |
| 2026-04-30 18:45 | 19.85141 | 71.99170 | 30119 ft | 410 kts | 313° |
| 2026-04-30 18:45 | 19.87077 | 71.96925 | 30621 ft | 414 kts | 313° |
| 2026-04-30 18:46 | 19.89029 | 71.94660 | 31123 ft | 417 kts | 313° |
| 2026-04-30 18:46 | 19.90998 | 71.92374 | 31625 ft | 421 kts | 312° |
| 2026-04-30 18:46 | 19.92984 | 71.90068 | 32127 ft | 424 kts | 312° |
| 2026-04-30 18:46 | 19.94984 | 71.87744 | 32628 ft | 428 kts | 312° |
| 2026-04-30 18:47 | 19.97000 | 71.85400 | 33130 ft | 431 kts | 312° |
| 2026-04-30 18:47 | 19.99032 | 71.83037 | 33632 ft | 435 kts | 312° |
| 2026-04-30 18:47 | 20.01078 | 71.80657 | 34133 ft | 438 kts | 311° |
| 2026-04-30 18:47 | 20.03141 | 71.78255 | 34635 ft | 441 kts | 311° |
| 2026-04-30 18:48 | 20.05218 | 71.75835 | 35136 ft | 445 kts | 311° |
| 2026-04-30 18:48 | 20.07312 | 71.73394 | 35638 ft | 448 kts | 312° |
| 2026-04-30 18:48 | 20.09420 | 71.70935 | 36140 ft | 452 kts | 312° |
| 2026-04-30 18:48 | 20.11544 | 71.68458 | 36641 ft | 455 kts | 312° |
| 2026-04-30 18:49 | 20.13679 | 71.65966 | 37142 ft | 457 kts | 312° |
| 2026-04-30 18:49 | 20.15824 | 71.63462 | 37643 ft | 459 kts | 312° |
| 2026-04-30 18:49 | 20.17989 | 71.60932 | 37881 ft | 466 kts | 312° |
| 2026-04-30 18:50 | 20.21705 | 71.55208 | 37987 ft | 483 kts | 297° |
| 2026-04-30 18:50 | 20.24266 | 71.48505 | 37979 ft | 491 kts | 290° |
| 2026-04-30 18:51 | 20.26280 | 71.41603 | 37970 ft | 485 kts | 287° |
| 2026-04-30 18:51 | 20.28084 | 71.34699 | 37968 ft | 483 kts | 286° |
| 2026-04-30 18:52 | 20.29833 | 71.27804 | 37967 ft | 482 kts | 286° |
| 2026-04-30 18:52 | 20.31585 | 71.20924 | 37966 ft | 481 kts | 286° |
| 2026-04-30 18:53 | 20.33354 | 71.14054 | 37964 ft | 481 kts | 286° |
| 2026-04-30 18:53 | 20.35142 | 71.07194 | 37963 ft | 480 kts | 286° |
| 2026-04-30 18:54 | 20.36946 | 71.00342 | 37962 ft | 480 kts | 286° |
| 2026-04-30 18:54 | 20.38761 | 70.93494 | 37961 ft | 480 kts | 286° |
| 2026-04-30 18:55 | 20.40583 | 70.86650 | 37961 ft | 480 kts | 286° |
| 2026-04-30 18:55 | 20.43323 | 70.76389 | 37959 ft | 479 kts | 286° |
| 2026-04-30 18:56 | 20.46062 | 70.66144 | 37958 ft | 479 kts | 286° |
| 2026-04-30 18:57 | 20.48799 | 70.55904 | 37957 ft | 478 kts | 286° |
| 2026-04-30 18:57 | 20.50621 | 70.49077 | 37957 ft | 478 kts | 286° |
| 2026-04-30 18:58 | 20.53350 | 70.38839 | 37956 ft | 478 kts | 286° |
| 2026-04-30 18:59 | 20.56073 | 70.28602 | 37955 ft | 478 kts | 286° |
| 2026-04-30 19:00 | 20.59696 | 70.14946 | 37955 ft | 478 kts | 286° |
| 2026-04-30 19:01 | 20.63307 | 70.01291 | 37954 ft | 478 kts | 286° |
| 2026-04-30 19:02 | 20.66015 | 69.91028 | 37954 ft | 480 kts | 285° |
| 2026-04-30 19:03 | 20.69615 | 69.77330 | 37953 ft | 481 kts | 285° |
| 2026-04-30 19:04 | 20.73222 | 69.63554 | 37953 ft | 481 kts | 285° |
| 2026-04-30 19:05 | 20.76815 | 69.49784 | 37953 ft | 481 kts | 285° |
| 2026-04-30 19:06 | 20.80397 | 69.36011 | 37952 ft | 481 kts | 285° |
| 2026-04-30 19:06 | 20.83076 | 69.25677 | 37952 ft | 481 kts | 285° |
| 2026-04-30 19:07 | 20.85747 | 69.15348 | 37952 ft | 480 kts | 285° |
| 2026-04-30 19:08 | 20.89295 | 69.01582 | 37951 ft | 480 kts | 285° |
| 2026-04-30 19:09 | 20.91949 | 68.91254 | 37951 ft | 480 kts | 284° |
| 2026-04-30 19:09 | 20.93704 | 68.84411 | 37951 ft | 480 kts | 284° |
| 2026-04-30 19:10 | 20.97224 | 68.70643 | 37950 ft | 480 kts | 284° |
| 2026-04-30 19:11 | 20.99856 | 68.60315 | 37950 ft | 480 kts | 284° |
| 2026-04-30 19:12 | 21.01608 | 68.53426 | 37950 ft | 480 kts | 284° |
| 2026-04-30 19:12 | 21.03355 | 68.46540 | 37950 ft | 479 kts | 284° |
| 2026-04-30 19:13 | 21.06841 | 68.32766 | 37947 ft | 479 kts | 284° |
| 2026-04-30 19:14 | 21.08579 | 68.25881 | 37946 ft | 479 kts | 284° |
| 2026-04-30 19:14 | 21.10313 | 68.18992 | 37946 ft | 479 kts | 284° |
| 2026-04-30 19:15 | 21.12044 | 68.12105 | 37945 ft | 479 kts | 284° |
| 2026-04-30 19:15 | 21.14740 | 68.01792 | 37944 ft | 480 kts | 287° |
| 2026-04-30 19:16 | 21.17272 | 67.95168 | 37945 ft | 482 kts | 292° |
| 2026-04-30 19:17 | 21.21708 | 67.85464 | 37943 ft | 485 kts | 295° |
| 2026-04-30 19:17 | 21.26348 | 67.75817 | 37942 ft | 486 kts | 295° |
| 2026-04-30 19:18 | 21.31001 | 67.66163 | 37940 ft | 486 kts | 295° |
| 2026-04-30 19:19 | 21.34067 | 67.59765 | 37939 ft | 485 kts | 295° |
| 2026-04-30 19:19 | 21.38672 | 67.50096 | 37938 ft | 485 kts | 295° |
| 2026-04-30 19:20 | 21.41727 | 67.43646 | 37937 ft | 485 kts | 295° |
| 2026-04-30 19:21 | 21.46299 | 67.33958 | 37935 ft | 485 kts | 295° |
| 2026-04-30 19:22 | 21.52376 | 67.21029 | 37933 ft | 485 kts | 295° |
| 2026-04-30 19:23 | 21.60956 | 67.02697 | 37965 ft | 485 kts | 295° |
| 2026-04-30 19:24 | 21.65498 | 66.92960 | 37968 ft | 486 kts | 294° |
| 2026-04-30 19:25 | 21.73060 | 66.76709 | 37925 ft | 486 kts | 294° |
| 2026-04-30 19:26 | 21.79096 | 66.63700 | 37923 ft | 486 kts | 294° |
| 2026-04-30 19:27 | 21.83619 | 66.53929 | 37922 ft | 486 kts | 294° |
| 2026-04-30 19:28 | 21.88138 | 66.44145 | 37921 ft | 487 kts | 294° |
| 2026-04-30 19:29 | 21.94159 | 66.31083 | 37920 ft | 487 kts | 294° |
| 2026-04-30 19:30 | 22.00173 | 66.17999 | 37919 ft | 487 kts | 294° |
| 2026-04-30 19:31 | 22.06147 | 66.04964 | 37917 ft | 482 kts | 294° |
| 2026-04-30 19:31 | 22.10624 | 65.95265 | 37916 ft | 482 kts | 294° |
| 2026-04-30 19:32 | 22.13638 | 65.88787 | 37917 ft | 484 kts | 294° |
| 2026-04-30 19:32 | 22.16648 | 65.82323 | 37917 ft | 486 kts | 294° |
| 2026-04-30 19:33 | 22.19683 | 65.75799 | 37916 ft | 487 kts | 294° |
| 2026-04-30 19:33 | 22.22720 | 65.69264 | 37916 ft | 487 kts | 294° |
| 2026-04-30 19:34 | 22.25752 | 65.62728 | 37916 ft | 487 kts | 294° |
| 2026-04-30 19:35 | 22.30294 | 65.52919 | 37916 ft | 487 kts | 294° |
| 2026-04-30 19:35 | 22.33316 | 65.46379 | 37916 ft | 487 kts | 294° |
| 2026-04-30 19:36 | 22.36335 | 65.39836 | 37916 ft | 486 kts | 294° |
| 2026-04-30 19:36 | 22.40855 | 65.30025 | 37916 ft | 486 kts | 294° |
| 2026-04-30 19:37 | 22.43863 | 65.23482 | 37916 ft | 486 kts | 294° |
| 2026-04-30 19:37 | 22.46867 | 65.16940 | 37917 ft | 486 kts | 294° |
| 2026-04-30 19:38 | 22.49866 | 65.10400 | 37917 ft | 485 kts | 294° |
| 2026-04-30 19:38 | 22.52861 | 65.03861 | 37917 ft | 485 kts | 294° |
| 2026-04-30 19:39 | 22.55852 | 64.97322 | 37918 ft | 485 kts | 294° |
| 2026-04-30 19:39 | 22.58836 | 64.90787 | 37918 ft | 484 kts | 293° |
| 2026-04-30 19:40 | 22.61818 | 64.84251 | 37919 ft | 484 kts | 293° |
| 2026-04-30 19:40 | 22.64774 | 64.77761 | 37919 ft | 484 kts | 293° |
| 2026-04-30 19:41 | 22.67746 | 64.71228 | 37920 ft | 484 kts | 293° |
| 2026-04-30 19:41 | 22.70716 | 64.64690 | 37920 ft | 484 kts | 293° |
| 2026-04-30 19:42 | 22.73681 | 64.58153 | 37921 ft | 483 kts | 293° |
| 2026-04-30 19:42 | 22.76643 | 64.51617 | 37922 ft | 483 kts | 293° |
| 2026-04-30 19:43 | 22.79601 | 64.45079 | 37923 ft | 483 kts | 293° |
| 2026-04-30 19:44 | 22.84028 | 64.35278 | 37924 ft | 482 kts | 293° |
| 2026-04-30 19:44 | 22.86975 | 64.28742 | 37925 ft | 482 kts | 292° |
| 2026-04-30 19:45 | 22.89918 | 64.22205 | 37926 ft | 482 kts | 292° |
| 2026-04-30 19:45 | 22.92857 | 64.15668 | 37927 ft | 482 kts | 292° |
| 2026-04-30 19:46 | 22.95793 | 64.09128 | 37928 ft | 482 kts | 292° |
| 2026-04-30 19:46 | 22.98725 | 64.02587 | 37929 ft | 482 kts | 292° |
| 2026-04-30 19:47 | 23.01655 | 63.96040 | 37930 ft | 482 kts | 292° |
| 2026-04-30 19:47 | 23.04539 | 63.89459 | 37929 ft | 482 kts | 290° |
| 2026-04-30 19:48 | 23.06379 | 63.82503 | 37937 ft | 479 kts | 279° |
| 2026-04-30 19:48 | 23.07434 | 63.75379 | 37937 ft | 478 kts | 275° |
| 2026-04-30 19:49 | 23.08196 | 63.68217 | 37937 ft | 477 kts | 274° |
| 2026-04-30 19:49 | 23.09183 | 63.57527 | 37938 ft | 476 kts | 273° |
| 2026-04-30 19:50 | 23.09836 | 63.50371 | 37940 ft | 476 kts | 273° |
| 2026-04-30 19:50 | 23.10501 | 63.43222 | 37942 ft | 476 kts | 273° |
| 2026-04-30 19:51 | 23.11180 | 63.36074 | 37943 ft | 476 kts | 274° |
| 2026-04-30 19:51 | 23.11870 | 63.28927 | 37945 ft | 476 kts | 274° |
| 2026-04-30 19:52 | 23.12568 | 63.21783 | 37946 ft | 476 kts | 274° |
| 2026-04-30 19:52 | 23.13269 | 63.14641 | 37948 ft | 475 kts | 274° |
| 2026-04-30 19:53 | 23.13973 | 63.07500 | 37949 ft | 475 kts | 274° |
| 2026-04-30 19:53 | 23.14677 | 63.00356 | 37951 ft | 475 kts | 274° |
| 2026-04-30 19:54 | 23.15380 | 62.93218 | 37953 ft | 475 kts | 274° |
| 2026-04-30 19:54 | 23.16082 | 62.86083 | 37954 ft | 475 kts | 274° |
| 2026-04-30 19:55 | 23.16780 | 62.78954 | 37956 ft | 474 kts | 274° |
| 2026-04-30 19:55 | 23.17475 | 62.71826 | 37939 ft | 474 kts | 274° |
| 2026-04-30 19:56 | 23.18168 | 62.64697 | 37927 ft | 474 kts | 274° |
| 2026-04-30 19:56 | 23.18856 | 62.57575 | 37927 ft | 474 kts | 274° |
| 2026-04-30 19:57 | 23.19542 | 62.50458 | 37928 ft | 474 kts | 274° |
| 2026-04-30 19:57 | 23.20224 | 62.43342 | 37929 ft | 473 kts | 274° |
| 2026-04-30 19:58 | 23.20903 | 62.36229 | 37930 ft | 473 kts | 274° |
| 2026-04-30 19:58 | 23.21578 | 62.29122 | 37931 ft | 473 kts | 274° |
| 2026-04-30 19:59 | 23.22249 | 62.22017 | 37932 ft | 472 kts | 274° |
| 2026-04-30 20:00 | 23.23250 | 62.11363 | 37933 ft | 472 kts | 274° |
| 2026-04-30 20:00 | 23.23913 | 62.04259 | 37934 ft | 472 kts | 274° |
| 2026-04-30 20:01 | 23.24901 | 61.93597 | 37935 ft | 473 kts | 274° |
| 2026-04-30 20:01 | 23.25553 | 61.86529 | 37936 ft | 473 kts | 274° |
| 2026-04-30 20:02 | 23.26532 | 61.75842 | 37937 ft | 473 kts | 274° |
| 2026-04-30 20:03 | 23.27504 | 61.65160 | 37938 ft | 473 kts | 274° |
| 2026-04-30 20:03 | 23.28148 | 61.58038 | 37939 ft | 473 kts | 274° |
| 2026-04-30 20:04 | 23.28788 | 61.50914 | 37940 ft | 473 kts | 274° |
| 2026-04-30 20:05 | 23.29741 | 61.40233 | 37941 ft | 473 kts | 274° |
| 2026-04-30 20:05 | 23.30687 | 61.29549 | 37942 ft | 473 kts | 274° |
| 2026-04-30 20:06 | 23.31322 | 61.22426 | 37941 ft | 473 kts | 274° |
| 2026-04-30 20:06 | 23.32798 | 61.15434 | 37946 ft | 476 kts | 284° |
| 2026-04-30 20:07 | 23.35049 | 61.08643 | 37945 ft | 478 kts | 289° |
| 2026-04-30 20:08 | 23.38894 | 60.98623 | 37944 ft | 478 kts | 290° |
| 2026-04-30 20:08 | 23.41526 | 60.91977 | 37945 ft | 478 kts | 290° |
| 2026-04-30 20:09 | 23.44152 | 60.85335 | 37948 ft | 477 kts | 290° |
| 2026-04-30 20:09 | 23.48050 | 60.75367 | 37979 ft | 477 kts | 290° |
| 2026-04-30 20:10 | 23.51472 | 60.66513 | 37977 ft | 476 kts | 290° |
| 2026-04-30 20:11 | 23.55297 | 60.56529 | 37976 ft | 476 kts | 290° |
| 2026-04-30 20:11 | 23.57832 | 60.49875 | 37975 ft | 475 kts | 290° |
| 2026-04-30 20:12 | 23.61618 | 60.39901 | 37967 ft | 474 kts | 289° |
| 2026-04-30 20:13 | 23.64131 | 60.33257 | 37966 ft | 474 kts | 289° |
| 2026-04-30 20:13 | 23.66638 | 60.26616 | 37965 ft | 473 kts | 289° |
| 2026-04-30 20:14 | 23.69141 | 60.19976 | 37965 ft | 473 kts | 289° |
| 2026-04-30 20:14 | 23.71636 | 60.13342 | 37964 ft | 473 kts | 289° |
| 2026-04-30 20:15 | 23.74128 | 60.06706 | 37964 ft | 472 kts | 289° |
| 2026-04-30 20:15 | 23.76615 | 60.00072 | 37963 ft | 472 kts | 289° |
| 2026-04-30 20:16 | 23.79099 | 59.93435 | 37962 ft | 472 kts | 289° |
| 2026-04-30 20:16 | 23.81579 | 59.86795 | 37962 ft | 472 kts | 289° |
| 2026-04-30 20:17 | 23.84040 | 59.80198 | 37961 ft | 472 kts | 289° |
| 2026-04-30 20:17 | 23.86520 | 59.73557 | 37961 ft | 472 kts | 289° |
| 2026-04-30 20:18 | 23.88999 | 59.66914 | 37960 ft | 472 kts | 289° |
| 2026-04-30 20:18 | 23.91474 | 59.60271 | 37959 ft | 472 kts | 289° |
| 2026-04-30 20:19 | 23.93945 | 59.53623 | 37959 ft | 472 kts | 289° |
| 2026-04-30 20:19 | 23.96412 | 59.46974 | 37958 ft | 472 kts | 289° |
| 2026-04-30 20:20 | 23.98875 | 59.40320 | 37958 ft | 472 kts | 289° |
| 2026-04-30 20:20 | 24.01359 | 59.33674 | 37958 ft | 472 kts | 289° |
| 2026-04-30 20:21 | 24.03915 | 59.27063 | 37957 ft | 472 kts | 290° |
| 2026-04-30 20:21 | 24.06501 | 59.20468 | 37956 ft | 472 kts | 290° |
| 2026-04-30 20:22 | 24.09095 | 59.13875 | 37956 ft | 471 kts | 290° |
| 2026-04-30 20:22 | 24.11685 | 59.07291 | 37955 ft | 471 kts | 290° |
| 2026-04-30 20:23 | 24.14252 | 59.00753 | 37955 ft | 471 kts | 290° |
| 2026-04-30 20:23 | 24.16832 | 58.94170 | 37955 ft | 470 kts | 290° |
| 2026-04-30 20:24 | 24.19405 | 58.87591 | 37955 ft | 470 kts | 290° |
| 2026-04-30 20:24 | 24.21972 | 58.81013 | 37954 ft | 469 kts | 290° |
| 2026-04-30 20:25 | 24.25812 | 58.71150 | 37954 ft | 469 kts | 290° |
| 2026-04-30 20:26 | 24.29642 | 58.61290 | 37954 ft | 468 kts | 289° |
| 2026-04-30 20:26 | 24.33460 | 58.51435 | 37954 ft | 468 kts | 289° |
| 2026-04-30 20:27 | 24.38534 | 58.38301 | 37954 ft | 467 kts | 289° |
| 2026-04-30 20:28 | 24.43589 | 58.25177 | 37956 ft | 467 kts | 289° |
| 2026-04-30 20:30 | 24.49885 | 58.08774 | 37955 ft | 466 kts | 289° |
| 2026-04-30 20:31 | 24.57416 | 57.89072 | 37954 ft | 468 kts | 289° |
| 2026-04-30 20:32 | 24.63709 | 57.72532 | 37953 ft | 470 kts | 289° |
| 2026-04-30 20:33 | 24.67481 | 57.62588 | 37953 ft | 470 kts | 289° |
| 2026-04-30 20:34 | 24.71247 | 57.52642 | 37953 ft | 469 kts | 288° |
| 2026-04-30 20:35 | 24.75002 | 57.42701 | 37952 ft | 469 kts | 288° |
| 2026-04-30 20:35 | 24.78747 | 57.32762 | 37952 ft | 468 kts | 288° |
| 2026-04-30 20:36 | 24.81237 | 57.26140 | 37952 ft | 468 kts | 288° |
| 2026-04-30 20:37 | 24.84945 | 57.16258 | 37952 ft | 468 kts | 288° |
| 2026-04-30 20:37 | 24.87423 | 57.09641 | 37951 ft | 467 kts | 288° |
| 2026-04-30 20:38 | 24.89895 | 57.03028 | 37951 ft | 467 kts | 288° |
| 2026-04-30 20:38 | 24.92363 | 56.96416 | 37951 ft | 467 kts | 288° |
| 2026-04-30 20:39 | 24.96058 | 56.86497 | 37951 ft | 466 kts | 288° |
| 2026-04-30 20:40 | 24.99743 | 56.76578 | 37951 ft | 466 kts | 288° |
| 2026-04-30 20:40 | 25.02195 | 56.69967 | 37951 ft | 466 kts | 288° |
| 2026-04-30 20:41 | 25.05860 | 56.60056 | 37952 ft | 465 kts | 288° |
| 2026-04-30 20:41 | 25.08153 | 56.53400 | 37953 ft | 463 kts | 285° |
| 2026-04-30 20:42 | 25.10064 | 56.46622 | 37952 ft | 462 kts | 283° |
| 2026-04-30 20:43 | 25.12645 | 56.36381 | 37951 ft | 461 kts | 281° |
| 2026-04-30 20:43 | 25.14306 | 56.29544 | 37950 ft | 461 kts | 281° |
| 2026-04-30 20:44 | 25.16783 | 56.19288 | 37952 ft | 461 kts | 281° |
| 2026-04-30 20:45 | 25.20091 | 56.05625 | 37958 ft | 460 kts | 281° |
| 2026-04-30 20:45 | 25.21746 | 55.98798 | 37962 ft | 460 kts | 281° |
| 2026-04-30 20:46 | 25.25047 | 55.85162 | 37974 ft | 462 kts | 281° |
| 2026-04-30 20:47 | 25.27533 | 55.74874 | 37977 ft | 462 kts | 281° |
| 2026-04-30 20:48 | 25.29664 | 55.66035 | 37978 ft | 462 kts | 281° |
| 2026-04-30 20:48 | 25.31311 | 55.59181 | 37979 ft | 461 kts | 281° |
| 2026-04-30 20:49 | 25.33197 | 55.52386 | 37980 ft | 465 kts | 287° |
| 2026-04-30 20:50 | 25.37318 | 55.42629 | 37981 ft | 469 kts | 293° |
| 2026-04-30 20:50 | 25.40394 | 55.36265 | 37980 ft | 469 kts | 294° |
| 2026-04-30 20:51 | 25.43530 | 55.29934 | 37981 ft | 469 kts | 294° |
| 2026-04-30 20:51 | 25.48227 | 55.20442 | 37984 ft | 469 kts | 294° |
| 2026-04-30 20:52 | 25.51332 | 55.14099 | 37984 ft | 468 kts | 294° |
| 2026-04-30 20:53 | 25.55948 | 55.04569 | 37983 ft | 468 kts | 293° |
| 2026-04-30 20:53 | 25.59003 | 54.98208 | 37984 ft | 468 kts | 293° |
| 2026-04-30 20:54 | 25.63550 | 54.88708 | 37984 ft | 467 kts | 293° |
| 2026-04-30 20:55 | 25.68114 | 54.79166 | 37984 ft | 467 kts | 293° |
| 2026-04-30 20:55 | 25.71149 | 54.72806 | 37986 ft | 467 kts | 293° |
| 2026-04-30 20:56 | 25.75698 | 54.63259 | 37988 ft | 467 kts | 292° |
| 2026-04-30 20:57 | 25.80241 | 54.53697 | 37991 ft | 467 kts | 292° |
| 2026-04-30 20:57 | 25.83265 | 54.47320 | 37993 ft | 467 kts | 292° |
| 2026-04-30 20:58 | 25.87305 | 54.38786 | 38003 ft | 467 kts | 292° |
| 2026-04-30 20:58 | 25.90322 | 54.32401 | 38029 ft | 467 kts | 292° |
| 2026-04-30 20:59 | 25.94844 | 54.22812 | 38042 ft | 467 kts | 292° |
| 2026-04-30 21:00 | 26.00861 | 54.10019 | 38053 ft | 466 kts | 292° |
| 2026-04-30 21:01 | 26.05319 | 54.00520 | 38057 ft | 462 kts | 291° |
| 2026-04-30 21:02 | 26.10251 | 53.91201 | 38065 ft | 467 kts | 297° |
| 2026-04-30 21:02 | 26.13780 | 53.85168 | 38068 ft | 469 kts | 298° |
| 2026-04-30 21:03 | 26.17402 | 53.79117 | 38071 ft | 470 kts | 298° |
| 2026-04-30 21:03 | 26.21045 | 53.73065 | 38074 ft | 470 kts | 298° |
| 2026-04-30 21:04 | 26.24686 | 53.67010 | 38077 ft | 470 kts | 298° |
| 2026-04-30 21:04 | 26.30133 | 53.57917 | 38082 ft | 470 kts | 298° |
| 2026-04-30 21:05 | 26.33749 | 53.51854 | 38084 ft | 470 kts | 297° |
| 2026-04-30 21:05 | 26.37358 | 53.45786 | 38087 ft | 469 kts | 297° |
| 2026-04-30 21:06 | 26.40956 | 53.39719 | 38089 ft | 469 kts | 297° |
| 2026-04-30 21:06 | 26.44547 | 53.33653 | 38092 ft | 468 kts | 297° |
| 2026-04-30 21:07 | 26.48130 | 53.27589 | 38094 ft | 468 kts | 297° |
| 2026-04-30 21:07 | 26.51707 | 53.21525 | 38097 ft | 467 kts | 297° |
| 2026-04-30 21:08 | 26.55274 | 53.15467 | 38100 ft | 467 kts | 297° |
| 2026-04-30 21:08 | 26.58833 | 53.09410 | 38102 ft | 466 kts | 297° |
| 2026-04-30 21:09 | 26.62386 | 53.03356 | 38104 ft | 465 kts | 296° |
| 2026-04-30 21:09 | 26.65931 | 52.97306 | 38106 ft | 465 kts | 296° |
| 2026-04-30 21:10 | 26.69468 | 52.91260 | 38108 ft | 464 kts | 296° |
| 2026-04-30 21:10 | 26.72998 | 52.85214 | 38110 ft | 464 kts | 296° |
| 2026-04-30 21:11 | 26.76520 | 52.79173 | 38112 ft | 463 kts | 296° |
| 2026-04-30 21:11 | 26.80037 | 52.73130 | 38115 ft | 463 kts | 296° |
| 2026-04-30 21:12 | 26.83549 | 52.67087 | 38117 ft | 463 kts | 296° |
| 2026-04-30 21:12 | 26.87055 | 52.61043 | 38120 ft | 463 kts | 296° |
| 2026-04-30 21:13 | 26.90557 | 52.55000 | 38122 ft | 462 kts | 295° |
| 2026-04-30 21:13 | 26.94027 | 52.49002 | 38124 ft | 462 kts | 295° |
| 2026-04-30 21:14 | 26.97515 | 52.42966 | 38127 ft | 461 kts | 295° |
| 2026-04-30 21:14 | 27.00995 | 52.36934 | 38129 ft | 460 kts | 295° |
| 2026-04-30 21:15 | 27.04465 | 52.30910 | 38135 ft | 459 kts | 295° |
| 2026-04-30 21:15 | 27.07929 | 52.24890 | 38137 ft | 459 kts | 295° |
| 2026-04-30 21:16 | 27.11384 | 52.18875 | 38138 ft | 458 kts | 295° |
| 2026-04-30 21:16 | 27.14834 | 52.12858 | 38139 ft | 458 kts | 295° |
| 2026-04-30 21:17 | 27.18278 | 52.06840 | 38139 ft | 458 kts | 295° |
| 2026-04-30 21:17 | 27.21717 | 52.00825 | 38140 ft | 457 kts | 295° |
| 2026-04-30 21:18 | 27.25151 | 51.94811 | 38140 ft | 457 kts | 295° |
| 2026-04-30 21:18 | 27.28585 | 51.88784 | 38140 ft | 458 kts | 295° |
| 2026-04-30 21:19 | 27.32018 | 51.82752 | 38140 ft | 458 kts | 295° |
| 2026-04-30 21:19 | 27.35446 | 51.76718 | 38139 ft | 458 kts | 295° |
| 2026-04-30 21:20 | 27.38871 | 51.70682 | 38138 ft | 458 kts | 295° |
| 2026-04-30 21:20 | 27.42290 | 51.64645 | 38137 ft | 457 kts | 295° |
| 2026-04-30 21:21 | 27.45704 | 51.58607 | 38134 ft | 457 kts | 295° |
| 2026-04-30 21:22 | 27.50819 | 51.49544 | 38130 ft | 457 kts | 295° |
| 2026-04-30 21:23 | 27.57623 | 51.37457 | 38128 ft | 456 kts | 294° |
| 2026-04-30 21:23 | 27.62715 | 51.28386 | 38126 ft | 456 kts | 294° |
| 2026-04-30 21:24 | 27.66103 | 51.22341 | 38125 ft | 457 kts | 294° |
| 2026-04-30 21:24 | 27.69991 | 51.16585 | 38126 ft | 465 kts | 302° |
| 2026-04-30 21:25 | 27.76598 | 51.08550 | 38124 ft | 469 kts | 306° |
| 2026-04-30 21:26 | 27.83484 | 51.00688 | 38127 ft | 469 kts | 306° |
| 2026-04-30 21:27 | 27.90386 | 50.92861 | 38154 ft | 468 kts | 306° |
| 2026-04-30 21:27 | 27.94969 | 50.87637 | 38084 ft | 467 kts | 306° |